sensor_id;sensor_type;location;lat;lon;timestamp;pressure;altitude;pressure_sealevel;temperature;humidity
10940;BME280;5522;42.696;23.494;2023-02-05T00:00:37;53759.31;;;-139.68;100.00
10940;BME280;5522;42.696;23.494;2023-02-05T00:03:05;53725.16;;;-139.68;100.00
10940;BME280;5522;42.696;23.494;2023-02-05T00:05:32;53757.31;;;-139.68;100.00
10940;BME280;5522;42.696;23.494;2023-02-05T00:07:59;53719.13;;;-139.68;100.00
10940;BME280;5522;42.696;23.494;2023-02-05T00:10:26;53723.13;;;-139.68;100.00
10940;BME280;5522;42.696;23.494;2023-02-05T00:12:53;53721.13;;;-139.68;100.00
10940;BME280;5522;42.696;23.494;2023-02-05T00:15:20;53713.09;;;-139.68;100.00
10940;BME280;5522;42.696;23.494;2023-02-05T00:17:46;53680.94;;;-139.68;100.00
10940;BME280;5522;42.696;23.494;2023-02-05T00:20:15;53699.03;;;-139.68;100.00
10940;BME280;5522;42.696;23.494;2023-02-05T00:22:42;53723.13;;;-139.68;100.00
10940;BME280;5522;42.696;23.494;2023-02-05T00:25:09;53755.31;;;-139.68;100.00
10940;BME280;5522;42.696;23.494;2023-02-05T00:27:36;53715.09;;;-139.68;100.00
10940;BME280;5522;42.696;23.494;2023-02-05T00:30:03;53735.19;;;-139.68;100.00
10940;BME280;5522;42.696;23.494;2023-02-05T00:32:30;53727.16;;;-139.68;100.00
10940;BME280;5522;42.696;23.494;2023-02-05T00:34:57;53703.03;;;-139.68;100.00
10940;BME280;5522;42.696;23.494;2023-02-05T00:37:25;53717.13;;;-139.68;100.00
10940;BME280;5522;42.696;23.494;2023-02-05T00:39:52;53695.00;;;-139.68;100.00
10940;BME280;5522;42.696;23.494;2023-02-05T00:42:19;53739.22;;;-139.68;100.00
10940;BME280;5522;42.696;23.494;2023-02-05T00:44:46;53719.13;;;-139.68;100.00
10940;BME280;5522;42.696;23.494;2023-02-05T00:47:12;53727.16;;;-139.68;100.00
10940;BME280;5522;42.696;23.494;2023-02-05T00:49:39;53747.25;;;-139.68;100.00
10940;BME280;5522;42.696;23.494;2023-02-05T00:52:06;53731.19;;;-139.68;100.00
10940;BME280;5522;42.696;23.494;2023-02-05T00:54:34;53680.94;;;-139.68;100.00
10940;BME280;5522;42.696;23.494;2023-02-05T00:57:01;53686.97;;;-139.68;100.00
10940;BME280;5522;42.696;23.494;2023-02-05T00:59:28;53725.16;;;-139.68;100.00
10940;BME280;5522;42.696;23.494;2023-02-05T01:01:55;53739.22;;;-139.68;100.00
10940;BME280;5522;42.696;23.494;2023-02-05T01:04:21;53711.09;;;-139.68;100.00
10940;BME280;5522;42.696;23.494;2023-02-05T01:06:48;53650.78;;;-139.68;100.00
10940;BME280;5522;42.696;23.494;2023-02-05T01:09:15;53725.16;;;-139.68;100.00
10940;BME280;5522;42.696;23.494;2023-02-05T01:11:43;53727.16;;;-139.68;100.00
10940;BME280;5522;42.696;23.494;2023-02-05T01:14:10;53711.09;;;-139.68;100.00
10940;BME280;5522;42.696;23.494;2023-02-05T01:16:37;53713.09;;;-139.68;100.00
10940;BME280;5522;42.696;23.494;2023-02-05T01:19:04;53701.03;;;-139.68;100.00
10940;BME280;5522;42.696;23.494;2023-02-05T01:21:30;53699.03;;;-139.68;100.00
10940;BME280;5522;42.696;23.494;2023-02-05T01:23:57;53713.09;;;-139.68;100.00
10940;BME280;5522;42.696;23.494;2023-02-05T01:26:26;53735.19;;;-139.68;100.00
10940;BME280;5522;42.696;23.494;2023-02-05T01:28:54;53688.97;;;-139.68;100.00
10940;BME280;5522;42.696;23.494;2023-02-05T01:31:20;53686.97;;;-139.68;100.00
10940;BME280;5522;42.696;23.494;2023-02-05T01:33:49;53695.00;;;-139.68;100.00
10940;BME280;5522;42.696;23.494;2023-02-05T01:36:16;53680.94;;;-139.68;100.00
10940;BME280;5522;42.696;23.494;2023-02-05T01:38:43;53707.06;;;-139.68;100.00
10940;BME280;5522;42.696;23.494;2023-02-05T01:41:11;53693.00;;;-139.68;100.00
10940;BME280;5522;42.696;23.494;2023-02-05T01:43:38;53727.16;;;-139.68;100.00
10940;BME280;5522;42.696;23.494;2023-02-05T01:46:20;53727.16;;;-139.68;100.00
10940;BME280;5522;42.696;23.494;2023-02-05T01:48:49;53707.06;;;-139.68;100.00
10940;BME280;5522;42.696;23.494;2023-02-05T01:51:18;53674.91;;;-139.68;100.00
10940;BME280;5522;42.696;23.494;2023-02-05T01:53:47;53707.06;;;-139.68;100.00
10940;BME280;5522;42.696;23.494;2023-02-05T01:56:17;53707.06;;;-139.68;100.00
10940;BME280;5522;42.696;23.494;2023-02-05T01:58:49;53735.19;;;-139.68;100.00
10940;BME280;5522;42.696;23.494;2023-02-05T02:01:19;53682.94;;;-139.68;100.00
10940;BME280;5522;42.696;23.494;2023-02-05T02:03:47;53737.22;;;-139.68;100.00
10940;BME280;5522;42.696;23.494;2023-02-05T02:06:15;53731.19;;;-139.68;100.00
10940;BME280;5522;42.696;23.494;2023-02-05T02:08:42;53703.03;;;-139.68;100.00
10940;BME280;5522;42.696;23.494;2023-02-05T02:11:10;53737.22;;;-139.68;100.00
10940;BME280;5522;42.696;23.494;2023-02-05T02:13:39;53733.19;;;-139.68;100.00
10940;BME280;5522;42.696;23.494;2023-02-05T02:16:07;53676.91;;;-139.68;100.00
10940;BME280;5522;42.696;23.494;2023-02-05T02:18:36;53727.16;;;-139.68;100.00
10940;BME280;5522;42.696;23.494;2023-02-05T02:21:32;53690.97;;;-139.68;100.00
10940;BME280;5522;42.696;23.494;2023-02-05T02:24:20;53731.19;;;-139.68;100.00
10940;BME280;5522;42.696;23.494;2023-02-05T02:26:59;53711.09;;;-139.68;100.00
10940;BME280;5522;42.696;23.494;2023-02-05T02:29:34;53725.16;;;-139.68;100.00
10940;BME280;5522;42.696;23.494;2023-02-05T02:32:08;53711.09;;;-139.68;100.00
10940;BME280;5522;42.696;23.494;2023-02-05T02:34:43;53699.03;;;-139.68;100.00
10940;BME280;5522;42.696;23.494;2023-02-05T02:37:15;53703.03;;;-139.68;100.00
10940;BME280;5522;42.696;23.494;2023-02-05T02:39:53;53735.19;;;-139.68;100.00
10940;BME280;5522;42.696;23.494;2023-02-05T02:42:26;53688.97;;;-139.68;100.00
10940;BME280;5522;42.696;23.494;2023-02-05T02:44:58;53682.94;;;-139.68;100.00
10940;BME280;5522;42.696;23.494;2023-02-05T02:47:29;53693.00;;;-139.68;100.00
10940;BME280;5522;42.696;23.494;2023-02-05T02:49:59;53699.03;;;-139.68;100.00
10940;BME280;5522;42.696;23.494;2023-02-05T02:52:31;53701.03;;;-139.68;100.00
10940;BME280;5522;42.696;23.494;2023-02-05T02:55:01;53690.97;;;-139.68;100.00
10940;BME280;5522;42.696;23.494;2023-02-05T02:57:33;53739.22;;;-139.68;100.00
10940;BME280;5522;42.696;23.494;2023-02-05T03:00:08;53670.88;;;-139.68;100.00
10940;BME280;5522;42.696;23.494;2023-02-05T03:02:37;53690.97;;;-139.68;100.00
10940;BME280;5522;42.696;23.494;2023-02-05T03:05:08;53666.84;;;-139.68;100.00
10940;BME280;5522;42.696;23.494;2023-02-05T03:07:38;53686.97;;;-139.68;100.00
10940;BME280;5522;42.696;23.494;2023-02-05T03:10:12;53733.19;;;-139.68;100.00
10940;BME280;5522;42.696;23.494;2023-02-05T03:12:39;53699.03;;;-139.68;100.00
10940;BME280;5522;42.696;23.494;2023-02-05T03:15:09;53719.13;;;-139.68;100.00
10940;BME280;5522;42.696;23.494;2023-02-05T03:17:36;53693.00;;;-139.68;100.00
10940;BME280;5522;42.696;23.494;2023-02-05T03:20:08;53713.09;;;-139.68;100.00
10940;BME280;5522;42.696;23.494;2023-02-05T03:22:35;53765.34;;;-139.68;100.00
10940;BME280;5522;42.696;23.494;2023-02-05T03:25:03;53697.00;;;-139.68;100.00
10940;BME280;5522;42.696;23.494;2023-02-05T03:27:30;53715.09;;;-139.68;100.00
10940;BME280;5522;42.696;23.494;2023-02-05T03:29:57;53703.03;;;-139.68;100.00
10940;BME280;5522;42.696;23.494;2023-02-05T03:32:35;53682.94;;;-139.68;100.00
10940;BME280;5522;42.696;23.494;2023-02-05T03:35:16;53703.03;;;-139.68;100.00
10940;BME280;5522;42.696;23.494;2023-02-05T03:37:53;53731.19;;;-139.68;100.00
10940;BME280;5522;42.696;23.494;2023-02-05T03:40:30;53719.13;;;-139.68;100.00
10940;BME280;5522;42.696;23.494;2023-02-05T03:43:04;53670.88;;;-139.68;100.00
10940;BME280;5522;42.696;23.494;2023-02-05T03:45:39;53670.88;;;-139.68;100.00
10940;BME280;5522;42.696;23.494;2023-02-05T03:48:17;53662.84;;;-139.68;100.00
10940;BME280;5522;42.696;23.494;2023-02-05T03:50:52;53686.97;;;-139.68;100.00
10940;BME280;5522;42.696;23.494;2023-02-05T03:53:26;53725.16;;;-139.68;100.00
10940;BME280;5522;42.696;23.494;2023-02-05T03:55:59;53690.97;;;-139.68;100.00
10940;BME280;5522;42.696;23.494;2023-02-05T03:58:32;53684.94;;;-139.68;100.00
10940;BME280;5522;42.696;23.494;2023-02-05T04:01:02;53699.03;;;-139.68;100.00
10940;BME280;5522;42.696;23.494;2023-02-05T04:03:31;53688.97;;;-139.68;100.00
10940;BME280;5522;42.696;23.494;2023-02-05T04:05:57;53682.94;;;-139.68;100.00
10940;BME280;5522;42.696;23.494;2023-02-05T04:08:24;53670.88;;;-139.68;100.00
10940;BME280;5522;42.696;23.494;2023-02-05T04:10:51;53739.22;;;-139.68;100.00
10940;BME280;5522;42.696;23.494;2023-02-05T04:13:18;53701.03;;;-139.68;100.00
10940;BME280;5522;42.696;23.494;2023-02-05T04:15:47;53688.97;;;-139.68;100.00
10940;BME280;5522;42.696;23.494;2023-02-05T04:18:14;53654.78;;;-139.68;100.00
10940;BME280;5522;42.696;23.494;2023-02-05T04:20:42;53652.78;;;-139.68;100.00
10940;BME280;5522;42.696;23.494;2023-02-05T04:23:10;53703.03;;;-139.68;100.00
10940;BME280;5522;42.696;23.494;2023-02-05T04:25:37;53670.88;;;-139.68;100.00
10940;BME280;5522;42.696;23.494;2023-02-05T04:28:05;53658.81;;;-139.68;100.00
10940;BME280;5522;42.696;23.494;2023-02-05T04:30:32;53731.19;;;-139.68;100.00
10940;BME280;5522;42.696;23.494;2023-02-05T04:32:59;53650.78;;;-139.68;100.00
10940;BME280;5522;42.696;23.494;2023-02-05T04:35:26;53721.13;;;-139.68;100.00
10940;BME280;5522;42.696;23.494;2023-02-05T04:37:54;53693.00;;;-139.68;100.00
10940;BME280;5522;42.696;23.494;2023-02-05T04:40:21;53727.16;;;-139.68;100.00
10940;BME280;5522;42.696;23.494;2023-02-05T04:42:48;53699.03;;;-139.68;100.00
10940;BME280;5522;42.696;23.494;2023-02-05T04:45:15;53672.88;;;-139.68;100.00
10940;BME280;5522;42.696;23.494;2023-02-05T04:47:41;53717.13;;;-139.68;100.00
10940;BME280;5522;42.696;23.494;2023-02-05T04:50:09;53699.03;;;-139.68;100.00
10940;BME280;5522;42.696;23.494;2023-02-05T04:52:35;53719.13;;;-139.68;100.00
10940;BME280;5522;42.696;23.494;2023-02-05T04:55:05;53670.88;;;-139.68;100.00
10940;BME280;5522;42.696;23.494;2023-02-05T04:57:31;53674.91;;;-139.68;100.00
10940;BME280;5522;42.696;23.494;2023-02-05T04:59:58;53682.94;;;-139.68;100.00
10940;BME280;5522;42.696;23.494;2023-02-05T05:02:25;53715.09;;;-139.68;100.00
10940;BME280;5522;42.696;23.494;2023-02-05T05:04:52;53707.06;;;-139.68;100.00
10940;BME280;5522;42.696;23.494;2023-02-05T05:07:19;53703.03;;;-139.68;100.00
10940;BME280;5522;42.696;23.494;2023-02-05T05:09:46;53682.94;;;-139.68;100.00
10940;BME280;5522;42.696;23.494;2023-02-05T05:12:14;53684.94;;;-139.68;100.00
10940;BME280;5522;42.696;23.494;2023-02-05T05:14:41;53693.00;;;-139.68;100.00
10940;BME280;5522;42.696;23.494;2023-02-05T05:17:07;53707.06;;;-139.68;100.00
10940;BME280;5522;42.696;23.494;2023-02-05T05:19:35;53690.97;;;-139.68;100.00
10940;BME280;5522;42.696;23.494;2023-02-05T05:22:02;53699.03;;;-139.68;100.00
10940;BME280;5522;42.696;23.494;2023-02-05T05:24:29;53690.97;;;-139.68;100.00
10940;BME280;5522;42.696;23.494;2023-02-05T05:26:58;53695.00;;;-139.68;100.00
10940;BME280;5522;42.696;23.494;2023-02-05T05:29:26;53686.97;;;-139.68;100.00
10940;BME280;5522;42.696;23.494;2023-02-05T05:31:53;53699.03;;;-139.68;100.00
10940;BME280;5522;42.696;23.494;2023-02-05T05:34:20;53701.03;;;-139.68;100.00
10940;BME280;5522;42.696;23.494;2023-02-05T05:36:47;53703.03;;;-139.68;100.00
10940;BME280;5522;42.696;23.494;2023-02-05T05:39:14;53729.16;;;-139.68;100.00
10940;BME280;5522;42.696;23.494;2023-02-05T05:41:58;53707.06;;;-139.68;100.00
10940;BME280;5522;42.696;23.494;2023-02-05T05:44:44;53707.06;;;-139.68;100.00
10940;BME280;5522;42.696;23.494;2023-02-05T05:47:14;53721.13;;;-139.68;100.00
10940;BME280;5522;42.696;23.494;2023-02-05T05:49:41;53727.16;;;-139.68;100.00
10940;BME280;5522;42.696;23.494;2023-02-05T05:52:08;53690.97;;;-139.68;100.00
10940;BME280;5522;42.696;23.494;2023-02-05T05:54:35;53690.97;;;-139.68;100.00
10940;BME280;5522;42.696;23.494;2023-02-05T05:57:03;53682.94;;;-139.68;100.00
10940;BME280;5522;42.696;23.494;2023-02-05T05:59:30;53727.16;;;-139.68;100.00
10940;BME280;5522;42.696;23.494;2023-02-05T06:01:59;53717.13;;;-139.68;100.00
10940;BME280;5522;42.696;23.494;2023-02-05T06:04:26;53668.88;;;-139.68;100.00
10940;BME280;5522;42.696;23.494;2023-02-05T06:06:53;53703.03;;;-139.68;100.00
10940;BME280;5522;42.696;23.494;2023-02-05T06:09:20;53723.13;;;-139.68;100.00
10940;BME280;5522;42.696;23.494;2023-02-05T06:11:48;53725.16;;;-139.68;100.00
10940;BME280;5522;42.696;23.494;2023-02-05T06:14:15;53731.19;;;-139.68;100.00
10940;BME280;5522;42.696;23.494;2023-02-05T06:16:42;53719.13;;;-139.68;100.00
10940;BME280;5522;42.696;23.494;2023-02-05T06:19:10;53707.06;;;-139.68;100.00
10940;BME280;5522;42.696;23.494;2023-02-05T06:21:37;53707.06;;;-139.68;100.00
10940;BME280;5522;42.696;23.494;2023-02-05T06:24:04;53701.03;;;-139.68;100.00
10940;BME280;5522;42.696;23.494;2023-02-05T06:26:31;53693.00;;;-139.68;100.00
10940;BME280;5522;42.696;23.494;2023-02-05T06:28:58;53707.06;;;-139.68;100.00
10940;BME280;5522;42.696;23.494;2023-02-05T06:31:27;53755.31;;;-139.68;100.00
10940;BME280;5522;42.696;23.494;2023-02-05T06:33:54;53690.97;;;-139.68;100.00
10940;BME280;5522;42.696;23.494;2023-02-05T06:36:23;53701.03;;;-139.68;100.00
10940;BME280;5522;42.696;23.494;2023-02-05T06:38:50;53684.94;;;-139.68;100.00
10940;BME280;5522;42.696;23.494;2023-02-05T06:41:17;53693.00;;;-139.68;100.00
10940;BME280;5522;42.696;23.494;2023-02-05T06:43:44;53699.03;;;-139.68;100.00
10940;BME280;5522;42.696;23.494;2023-02-05T06:46:11;53705.06;;;-139.68;100.00
10940;BME280;5522;42.696;23.494;2023-02-05T06:48:37;53721.13;;;-139.68;100.00
10940;BME280;5522;42.696;23.494;2023-02-05T06:51:04;53699.03;;;-139.68;100.00
10940;BME280;5522;42.696;23.494;2023-02-05T06:53:33;53723.13;;;-139.68;100.00
10940;BME280;5522;42.696;23.494;2023-02-05T06:56:00;53674.91;;;-139.68;100.00
10940;BME280;5522;42.696;23.494;2023-02-05T06:58:27;53727.16;;;-139.68;100.00
10940;BME280;5522;42.696;23.494;2023-02-05T07:00:53;53739.22;;;-139.68;100.00
10940;BME280;5522;42.696;23.494;2023-02-05T07:03:20;53725.16;;;-139.68;100.00
10940;BME280;5522;42.696;23.494;2023-02-05T07:05:47;53719.13;;;-139.68;100.00
10940;BME280;5522;42.696;23.494;2023-02-05T07:08:15;53707.06;;;-139.68;100.00
10940;BME280;5522;42.696;23.494;2023-02-05T07:10:43;53713.09;;;-139.68;100.00
10940;BME280;5522;42.696;23.494;2023-02-05T07:13:10;53693.00;;;-139.68;100.00
10940;BME280;5522;42.696;23.494;2023-02-05T07:15:37;53735.19;;;-139.68;100.00
10940;BME280;5522;42.696;23.494;2023-02-05T07:18:04;53682.94;;;-139.68;100.00
10940;BME280;5522;42.696;23.494;2023-02-05T07:20:32;53727.16;;;-139.68;100.00
10940;BME280;5522;42.696;23.494;2023-02-05T07:22:59;53719.13;;;-139.68;100.00
10940;BME280;5522;42.696;23.494;2023-02-05T07:25:25;53759.31;;;-139.68;100.00
10940;BME280;5522;42.696;23.494;2023-02-05T07:27:54;53713.09;;;-139.68;100.00
10940;BME280;5522;42.696;23.494;2023-02-05T07:30:21;53666.84;;;-139.68;100.00
10940;BME280;5522;42.696;23.494;2023-02-05T07:32:48;53703.03;;;-139.68;100.00
10940;BME280;5522;42.696;23.494;2023-02-05T07:35:15;53719.13;;;-139.68;100.00
10940;BME280;5522;42.696;23.494;2023-02-05T07:37:42;53715.09;;;-139.68;100.00
10940;BME280;5522;42.696;23.494;2023-02-05T07:40:09;53707.06;;;-139.68;100.00
10940;BME280;5522;42.696;23.494;2023-02-05T07:42:36;53739.22;;;-139.68;98.82
10940;BME280;5522;42.696;23.494;2023-02-05T07:45:05;53735.19;;;-139.68;97.71
10940;BME280;5522;42.696;23.494;2023-02-05T07:47:32;53723.13;;;-139.68;94.86
10940;BME280;5522;42.696;23.494;2023-02-05T07:49:59;53707.06;;;-139.68;91.60
10940;BME280;5522;42.696;23.494;2023-02-05T07:52:26;53755.31;;;-139.68;89.84
10940;BME280;5522;42.696;23.494;2023-02-05T07:54:53;53709.06;;;-139.68;88.71
10940;BME280;5522;42.696;23.494;2023-02-05T07:57:20;53715.09;;;-139.68;85.24
10940;BME280;5522;42.696;23.494;2023-02-05T07:59:46;53741.22;;;-139.68;80.42
10940;BME280;5522;42.696;23.494;2023-02-05T08:02:15;53713.09;;;-139.68;79.56
10940;BME280;5522;42.696;23.494;2023-02-05T08:04:41;53719.13;;;-139.68;77.54
10940;BME280;5522;42.696;23.494;2023-02-05T08:07:10;53751.28;;;-139.68;75.43
10940;BME280;5522;42.696;23.494;2023-02-05T08:09:38;53777.41;;;-139.68;72.22
10940;BME280;5522;42.696;23.494;2023-02-05T08:12:05;53697.00;;;-139.68;67.21
10940;BME280;5522;42.696;23.494;2023-02-05T08:14:32;53727.16;;;-139.68;65.92
10940;BME280;5522;42.696;23.494;2023-02-05T08:16:59;53727.16;;;-139.68;62.07
10940;BME280;5522;42.696;23.494;2023-02-05T08:19:27;53743.25;;;-139.68;60.78
10940;BME280;5522;42.696;23.494;2023-02-05T08:21:54;53785.47;;;-139.68;57.86
10940;BME280;5522;42.696;23.494;2023-02-05T08:24:21;53743.25;;;-139.68;51.23
10940;BME280;5522;42.696;23.494;2023-02-05T08:26:48;53723.13;;;-139.68;55.24
10940;BME280;5522;42.696;23.494;2023-02-05T08:29:15;53775.41;;;-139.68;53.45
10940;BME280;5522;42.696;23.494;2023-02-05T08:31:42;53741.22;;;-139.68;51.65
10940;BME280;5522;42.696;23.494;2023-02-05T08:34:09;53757.31;;;-139.68;51.24
10940;BME280;5522;42.696;23.494;2023-02-05T08:36:37;53749.28;;;-139.68;48.59
10940;BME280;5522;42.696;23.494;2023-02-05T08:39:04;53745.25;;;-139.68;51.45
10940;BME280;5522;42.696;23.494;2023-02-05T08:41:31;53755.31;;;-139.68;47.24
10940;BME280;5522;42.696;23.494;2023-02-05T08:43:58;53703.03;;;-139.68;51.40
10940;BME280;5522;42.696;23.494;2023-02-05T08:46:25;53737.22;;;-139.68;51.31
10940;BME280;5522;42.696;23.494;2023-02-05T08:48:52;53753.28;;;-139.68;45.43
10940;BME280;5522;42.696;23.494;2023-02-05T08:51:19;53775.41;;;-139.68;47.03
10940;BME280;5522;42.696;23.494;2023-02-05T08:53:48;53759.31;;;-139.68;45.20
10940;BME280;5522;42.696;23.494;2023-02-05T08:56:15;53731.19;;;-139.68;46.16
10940;BME280;5522;42.696;23.494;2023-02-05T08:58:42;53819.63;;;-139.68;46.76
10940;BME280;5522;42.696;23.494;2023-02-05T09:01:11;53771.38;;;-139.68;46.24
10940;BME280;5522;42.696;23.494;2023-02-05T09:03:38;53719.13;;;-139.68;42.96
10940;BME280;5522;42.696;23.494;2023-02-05T09:06:07;53731.19;;;-139.68;40.13
10940;BME280;5522;42.696;23.494;2023-02-05T09:08:35;53803.56;;;-139.68;39.78
10940;BME280;5522;42.696;23.494;2023-02-05T09:11:04;53737.22;;;-139.68;39.37
10940;BME280;5522;42.696;23.494;2023-02-05T09:13:31;53779.44;;;-139.68;40.16
10940;BME280;5522;42.696;23.494;2023-02-05T09:15:58;53763.34;;;-139.68;40.63
10940;BME280;5522;42.696;23.494;2023-02-05T09:18:25;53743.25;;;-139.68;41.07
10940;BME280;5522;42.696;23.494;2023-02-05T09:20:52;53775.41;;;-139.68;38.76
10940;BME280;5522;42.696;23.494;2023-02-05T09:23:19;53771.38;;;-139.68;39.59
10940;BME280;5522;42.696;23.494;2023-02-05T09:25:46;53741.22;;;-139.68;39.59
10940;BME280;5522;42.696;23.494;2023-02-05T09:28:15;53703.03;;;-139.68;40.58
10940;BME280;5522;42.696;23.494;2023-02-05T09:30:43;53759.31;;;-139.68;41.50
10940;BME280;5522;42.696;23.494;2023-02-05T09:33:12;53729.16;;;-139.68;42.03
10940;BME280;5522;42.696;23.494;2023-02-05T09:35:39;53775.41;;;-139.68;40.46
10940;BME280;5522;42.696;23.494;2023-02-05T09:38:06;53747.25;;;-139.68;37.36
10940;BME280;5522;42.696;23.494;2023-02-05T09:40:37;53755.31;;;-139.68;40.86
10940;BME280;5522;42.696;23.494;2023-02-05T09:43:19;53781.44;;;-139.68;40.96
10940;BME280;5522;42.696;23.494;2023-02-05T09:45:54;53767.38;;;-139.68;41.51
10940;BME280;5522;42.696;23.494;2023-02-05T09:48:42;53779.44;;;-139.68;37.94
10940;BME280;5522;42.696;23.494;2023-02-05T09:51:15;53767.38;;;-139.68;39.94
10940;BME280;5522;42.696;23.494;2023-02-05T09:53:48;53755.31;;;-139.68;39.71
10940;BME280;5522;42.696;23.494;2023-02-05T09:56:19;53745.25;;;-139.68;40.28
10940;BME280;5522;42.696;23.494;2023-02-05T09:58:49;53739.22;;;-139.68;42.93
10940;BME280;5522;42.696;23.494;2023-02-05T10:01:21;53763.34;;;-139.68;44.73
10940;BME280;5522;42.696;23.494;2023-02-05T10:03:51;53759.31;;;-139.68;44.58
10940;BME280;5522;42.696;23.494;2023-02-05T10:09:24;53743.25;;;-139.68;42.68
10940;BME280;5522;42.696;23.494;2023-02-05T10:12:19;53735.19;;;-139.68;43.19
10940;BME280;5522;42.696;23.494;2023-02-05T10:15:00;53763.34;;;-139.68;44.66
10940;BME280;5522;42.696;23.494;2023-02-05T10:17:40;53723.13;;;-139.68;42.86
10940;BME280;5522;42.696;23.494;2023-02-05T10:20:25;53799.53;;;-139.68;43.69
10940;BME280;5522;42.696;23.494;2023-02-05T10:23:09;53759.31;;;-139.68;47.25
10940;BME280;5522;42.696;23.494;2023-02-05T10:25:48;53771.38;;;-139.68;46.39
10940;BME280;5522;42.696;23.494;2023-02-05T10:28:54;53763.34;;;-139.68;43.28
10940;BME280;5522;42.696;23.494;2023-02-05T10:31:36;53695.00;;;-139.68;43.40
10940;BME280;5522;42.696;23.494;2023-02-05T10:34:17;53751.28;;;-139.68;41.38
10940;BME280;5522;42.696;23.494;2023-02-05T10:36:48;53743.25;;;-139.68;43.04
10940;BME280;5522;42.696;23.494;2023-02-05T10:39:17;53783.44;;;-139.68;42.42
10940;BME280;5522;42.696;23.494;2023-02-05T10:41:49;53747.25;;;-139.68;42.15
10940;BME280;5522;42.696;23.494;2023-02-05T10:44:23;53783.44;;;-139.68;43.58
10940;BME280;5522;42.696;23.494;2023-02-05T10:46:58;53735.19;;;-139.68;41.37
10940;BME280;5522;42.696;23.494;2023-02-05T10:49:39;53743.25;;;-139.68;41.01
10940;BME280;5522;42.696;23.494;2023-02-05T10:52:11;53695.00;;;-139.68;42.06
10940;BME280;5522;42.696;23.494;2023-02-05T10:54:39;53751.28;;;-139.68;40.72
10940;BME280;5522;42.696;23.494;2023-02-05T10:57:12;53727.16;;;-139.68;41.43
10940;BME280;5522;42.696;23.494;2023-02-05T10:59:47;53731.19;;;-139.68;39.54
10940;BME280;5522;42.696;23.494;2023-02-05T11:02:16;53731.19;;;-139.68;39.91
10940;BME280;5522;42.696;23.494;2023-02-05T11:04:45;53775.41;;;-139.68;40.13
10940;BME280;5522;42.696;23.494;2023-02-05T11:07:20;53719.13;;;-139.68;41.44
10940;BME280;5522;42.696;23.494;2023-02-05T11:09:49;53743.25;;;-139.68;42.50
10940;BME280;5522;42.696;23.494;2023-02-05T11:12:22;53737.22;;;-139.68;41.01
10940;BME280;5522;42.696;23.494;2023-02-05T11:14:55;53741.22;;;-139.68;42.41
10940;BME280;5522;42.696;23.494;2023-02-05T11:17:29;53749.28;;;-139.68;42.09
10940;BME280;5522;42.696;23.494;2023-02-05T11:19:59;53751.28;;;-139.68;42.97
10940;BME280;5522;42.696;23.494;2023-02-05T11:22:28;53787.47;;;-139.68;41.36
10940;BME280;5522;42.696;23.494;2023-02-05T11:25:06;53783.44;;;-139.68;41.22
10940;BME280;5522;42.696;23.494;2023-02-05T11:27:33;53731.19;;;-139.68;40.72
10940;BME280;5522;42.696;23.494;2023-02-05T11:30:17;53781.44;;;-139.68;40.24
10940;BME280;5522;42.696;23.494;2023-02-05T11:32:46;53751.28;;;-139.68;38.77
10940;BME280;5522;42.696;23.494;2023-02-05T11:35:19;53763.34;;;-139.68;37.07
10940;BME280;5522;42.696;23.494;2023-02-05T11:37:51;53755.31;;;-139.68;39.73
10940;BME280;5522;42.696;23.494;2023-02-05T11:40:22;53771.38;;;-139.68;39.14
10940;BME280;5522;42.696;23.494;2023-02-05T11:42:59;53759.31;;;-139.68;39.36
10940;BME280;5522;42.696;23.494;2023-02-05T11:45:28;53753.28;;;-139.68;39.39
10940;BME280;5522;42.696;23.494;2023-02-05T11:47:59;53745.25;;;-139.68;40.66
10940;BME280;5522;42.696;23.494;2023-02-05T11:50:28;53755.31;;;-139.68;39.87
10940;BME280;5522;42.696;23.494;2023-02-05T11:53:07;53777.41;;;-139.68;39.60
10940;BME280;5522;42.696;23.494;2023-02-05T11:55:39;53759.31;;;-139.68;41.09
10940;BME280;5522;42.696;23.494;2023-02-05T11:58:18;53761.34;;;-139.68;40.94
10940;BME280;5522;42.696;23.494;2023-02-05T12:00:51;53743.25;;;-139.68;40.42
10940;BME280;5522;42.696;23.494;2023-02-05T12:03:20;53739.22;;;-139.68;39.54
10940;BME280;5522;42.696;23.494;2023-02-05T12:05:50;53725.16;;;-139.68;40.13
10940;BME280;5522;42.696;23.494;2023-02-05T12:08:25;53745.25;;;-139.68;40.92
10940;BME280;5522;42.696;23.494;2023-02-05T12:11:01;53719.13;;;-139.68;40.61
10940;BME280;5522;42.696;23.494;2023-02-05T12:13:42;53711.09;;;-139.68;40.45
10940;BME280;5522;42.696;23.494;2023-02-05T12:16:18;53729.16;;;-139.68;40.33
10940;BME280;5522;42.696;23.494;2023-02-05T12:18:57;53759.31;;;-139.68;40.98
10940;BME280;5522;42.696;23.494;2023-02-05T12:21:35;53755.31;;;-139.68;41.52
10940;BME280;5522;42.696;23.494;2023-02-05T12:24:45;53751.28;;;-139.68;40.64
10940;BME280;5522;42.696;23.494;2023-02-05T12:27:22;53751.28;;;-139.68;40.64
10940;BME280;5522;42.696;23.494;2023-02-05T12:30:11;53755.31;;;-139.68;40.80
10940;BME280;5522;42.696;23.494;2023-02-05T12:32:49;53727.16;;;-139.68;39.96
10940;BME280;5522;42.696;23.494;2023-02-05T12:35:28;53775.41;;;-139.68;39.66
10940;BME280;5522;42.696;23.494;2023-02-05T12:38:04;53733.19;;;-139.68;38.74
10940;BME280;5522;42.696;23.494;2023-02-05T12:40:43;53733.19;;;-139.68;39.94
10940;BME280;5522;42.696;23.494;2023-02-05T12:43:27;53765.34;;;-139.68;40.55
10940;BME280;5522;42.696;23.494;2023-02-05T12:46:03;53755.31;;;-139.68;39.88
10940;BME280;5522;42.696;23.494;2023-02-05T12:48:44;53715.09;;;-139.68;39.16
10940;BME280;5522;42.696;23.494;2023-02-05T12:51:24;53739.22;;;-139.68;39.49